sensor_id;sensor_type;location;lat;lon;timestamp;pressure;altitude;pressure_sealevel;temperature;humidity
22862;BME280;11598;50.652;6.172;2022-10-16T00:08:38;96085.63;;;10.59;100.00
22862;BME280;11598;50.652;6.172;2022-10-16T00:18:40;96063.81;;;10.50;100.00
22862;BME280;11598;50.652;6.172;2022-10-16T00:28:40;96065.59;;;10.39;100.00
22862;BME280;11598;50.652;6.172;2022-10-16T00:38:41;96044.38;;;10.33;100.00
22862;BME280;11598;50.652;6.172;2022-10-16T00:48:45;96057.94;;;10.26;100.00
22862;BME280;11598;50.652;6.172;2022-10-16T00:58:47;96065.50;;;10.18;100.00
22862;BME280;11598;50.652;6.172;2022-10-16T01:19:09;96067.75;;;10.11;100.00
22862;BME280;11598;50.652;6.172;2022-10-16T01:29:18;96096.09;;;10.14;100.00
22862;BME280;11598;50.652;6.172;2022-10-16T01:39:24;96079.66;;;10.25;100.00
22862;BME280;11598;50.652;6.172;2022-10-16T01:49:34;96087.34;;;10.38;100.00
22862;BME280;11598;50.652;6.172;2022-10-16T01:59:40;96086.34;;;10.50;100.00
22862;BME280;11598;50.652;6.172;2022-10-16T02:09:42;96112.06;;;10.64;100.00
22862;BME280;11598;50.652;6.172;2022-10-16T02:19:43;96097.69;;;10.81;100.00
22862;BME280;11598;50.652;6.172;2022-10-16T02:29:53;96116.56;;;10.94;100.00
22862;BME280;11598;50.652;6.172;2022-10-16T02:39:58;96101.06;;;10.93;100.00
22862;BME280;11598;50.652;6.172;2022-10-16T02:49:59;96079.50;;;10.81;100.00
22862;BME280;11598;50.652;6.172;2022-10-16T02:59:59;96080.13;;;10.73;100.00
22862;BME280;11598;50.652;6.172;2022-10-16T03:10:00;96087.13;;;10.73;100.00
22862;BME280;11598;50.652;6.172;2022-10-16T03:20:00;96077.06;;;10.79;100.00
22862;BME280;11598;50.652;6.172;2022-10-16T03:30:01;96086.00;;;10.87;100.00
22862;BME280;11598;50.652;6.172;2022-10-16T03:40:01;96124.47;;;10.93;100.00
22862;BME280;11598;50.652;6.172;2022-10-16T03:50:03;96115.72;;;10.94;100.00
22862;BME280;11598;50.652;6.172;2022-10-16T04:00:04;96108.53;;;10.86;100.00
22862;BME280;11598;50.652;6.172;2022-10-16T04:10:05;96114.63;;;10.75;100.00
22862;BME280;11598;50.652;6.172;2022-10-16T04:20:06;96123.03;;;10.68;100.00
22862;BME280;11598;50.652;6.172;2022-10-16T04:30:07;96127.06;;;10.61;100.00
22862;BME280;11598;50.652;6.172;2022-10-16T04:40:07;96131.94;;;10.54;100.00
22862;BME280;11598;50.652;6.172;2022-10-16T04:50:08;96145.03;;;10.52;100.00
22862;BME280;11598;50.652;6.172;2022-10-16T05:00:09;96169.47;;;10.50;100.00
22862;BME280;11598;50.652;6.172;2022-10-16T05:10:09;96163.69;;;10.46;100.00
22862;BME280;11598;50.652;6.172;2022-10-16T05:20:10;96182.56;;;10.37;100.00
22862;BME280;11598;50.652;6.172;2022-10-16T05:30:10;96188.84;;;10.34;100.00
22862;BME280;11598;50.652;6.172;2022-10-16T05:40:11;96212.22;;;10.34;100.00
22862;BME280;11598;50.652;6.172;2022-10-16T05:50:13;96239.47;;;10.29;100.00
22862;BME280;11598;50.652;6.172;2022-10-16T06:00:13;96241.03;;;10.43;100.00
22862;BME280;11598;50.652;6.172;2022-10-16T06:10:13;96259.88;;;10.67;100.00
22862;BME280;11598;50.652;6.172;2022-10-16T06:20:14;96269.44;;;10.89;100.00
22862;BME280;11598;50.652;6.172;2022-10-16T06:30:14;96276.63;;;10.97;100.00
22862;BME280;11598;50.652;6.172;2022-10-16T06:40:15;96296.34;;;10.99;100.00
22862;BME280;11598;50.652;6.172;2022-10-16T06:50:15;96314.75;;;11.19;100.00
22862;BME280;11598;50.652;6.172;2022-10-16T07:00:15;96323.94;;;11.34;100.00
22862;BME280;11598;50.652;6.172;2022-10-16T07:10:16;96351.00;;;11.43;100.00
22862;BME280;11598;50.652;6.172;2022-10-16T07:20:16;96366.28;;;11.36;100.00
22862;BME280;11598;50.652;6.172;2022-10-16T07:30:17;96385.50;;;11.45;100.00
22862;BME280;11598;50.652;6.172;2022-10-16T07:40:17;96396.16;;;11.53;100.00
22862;BME280;11598;50.652;6.172;2022-10-16T07:50:17;96405.09;;;11.83;100.00
22862;BME280;11598;50.652;6.172;2022-10-16T08:00:18;96404.75;;;12.09;100.00
22862;BME280;11598;50.652;6.172;2022-10-16T08:10:20;96424.38;;;12.45;100.00
22862;BME280;11598;50.652;6.172;2022-10-16T08:20:20;96454.50;;;12.80;100.00
22862;BME280;11598;50.652;6.172;2022-10-16T08:30:22;96459.06;;;13.08;100.00
22862;BME280;11598;50.652;6.172;2022-10-16T08:40:25;96463.31;;;13.09;100.00
22862;BME280;11598;50.652;6.172;2022-10-16T08:50:29;96467.00;;;13.28;99.97
22862;BME280;11598;50.652;6.172;2022-10-16T09:00:30;96469.88;;;13.56;96.63
22862;BME280;11598;50.652;6.172;2022-10-16T09:30:45;96490.41;;;13.80;89.92
22862;BME280;11598;50.652;6.172;2022-10-16T09:40:46;96507.38;;;13.55;89.01
22862;BME280;11598;50.652;6.172;2022-10-16T09:50:56;96500.22;;;13.57;88.41
22862;BME280;11598;50.652;6.172;2022-10-16T10:00:57;96487.28;;;13.86;88.30
22862;BME280;11598;50.652;6.172;2022-10-16T10:10:57;96498.75;;;14.33;86.58
22862;BME280;11598;50.652;6.172;2022-10-16T10:21:00;96499.72;;;14.91;83.30
22862;BME280;11598;50.652;6.172;2022-10-16T11:01:56;96512.91;;;16.21;78.47
22862;BME280;11598;50.652;6.172;2022-10-16T11:22:30;96531.78;;;16.24;78.94
22862;BME280;11598;50.652;6.172;2022-10-16T11:32:38;96529.53;;;16.30;78.75
22862;BME280;11598;50.652;6.172;2022-10-16T11:42:48;96532.84;;;16.32;79.27
22862;BME280;11598;50.652;6.172;2022-10-16T12:03:17;96531.09;;;16.04;76.31
22862;BME280;11598;50.652;6.172;2022-10-16T12:13:40;96534.16;;;16.18;78.28
22862;BME280;11598;50.652;6.172;2022-10-16T12:34:02;96532.88;;;16.04;79.55
22862;BME280;11598;50.652;6.172;2022-10-16T12:44:03;96545.06;;;15.95;80.56
22862;BME280;11598;50.652;6.172;2022-10-16T13:04:36;96520.03;;;15.83;82.26
22862;BME280;11598;50.652;6.172;2022-10-16T13:14:59;96526.69;;;15.58;84.43
22862;BME280;11598;50.652;6.172;2022-10-16T13:25:18;96532.69;;;15.88;83.30
22862;BME280;11598;50.652;6.172;2022-10-16T13:35:28;96525.00;;;15.76;83.77
22862;BME280;11598;50.652;6.172;2022-10-16T13:45:29;96529.09;;;15.89;84.33
22862;BME280;11598;50.652;6.172;2022-10-16T13:55:30;96548.19;;;15.71;84.85
22862;BME280;11598;50.652;6.172;2022-10-16T14:05:31;96529.94;;;15.79;85.34
22862;BME280;11598;50.652;6.172;2022-10-16T14:15:34;96546.84;;;15.95;85.29
22862;BME280;11598;50.652;6.172;2022-10-16T14:25:35;96544.31;;;16.31;85.58
22862;BME280;11598;50.652;6.172;2022-10-16T14:35:38;96543.63;;;16.28;86.70
22862;BME280;11598;50.652;6.172;2022-10-16T14:45:39;96542.88;;;16.18;87.26
22862;BME280;11598;50.652;6.172;2022-10-16T14:55:42;96546.63;;;16.06;86.50
22862;BME280;11598;50.652;6.172;2022-10-16T15:05:42;96540.13;;;15.92;86.65
22862;BME280;11598;50.652;6.172;2022-10-16T15:15:45;96550.81;;;15.71;87.62
22862;BME280;11598;50.652;6.172;2022-10-16T15:25:50;96541.03;;;15.54;89.04
22862;BME280;11598;50.652;6.172;2022-10-16T15:35:52;96543.31;;;15.39;89.95
22862;BME280;11598;50.652;6.172;2022-10-16T15:56:04;96519.69;;;15.01;91.52
22862;BME280;11598;50.652;6.172;2022-10-16T16:06:07;96523.69;;;14.86;92.55
22862;BME280;11598;50.652;6.172;2022-10-16T16:16:17;96524.78;;;14.74;93.21
22862;BME280;11598;50.652;6.172;2022-10-16T16:26:26;96525.78;;;14.63;94.48
22862;BME280;11598;50.652;6.172;2022-10-16T16:36:26;96521.22;;;14.55;95.26
22862;BME280;11598;50.652;6.172;2022-10-16T16:46:27;96528.06;;;14.47;95.99
22862;BME280;11598;50.652;6.172;2022-10-16T16:56:27;96530.00;;;14.45;96.95
22862;BME280;11598;50.652;6.172;2022-10-16T17:06:28;96519.13;;;14.40;98.07
22862;BME280;11598;50.652;6.172;2022-10-16T17:16:34;96540.03;;;14.30;98.93
22862;BME280;11598;50.652;6.172;2022-10-16T17:26:35;96530.09;;;14.24;99.82
22862;BME280;11598;50.652;6.172;2022-10-16T17:36:39;96528.31;;;14.24;100.00
22862;BME280;11598;50.652;6.172;2022-10-16T17:46:42;96542.88;;;14.17;100.00
22862;BME280;11598;50.652;6.172;2022-10-16T17:56:43;96547.69;;;14.12;100.00
22862;BME280;11598;50.652;6.172;2022-10-16T18:06:44;96553.19;;;14.09;100.00
22862;BME280;11598;50.652;6.172;2022-10-16T18:16:44;96572.84;;;14.13;100.00
22862;BME280;11598;50.652;6.172;2022-10-16T18:26:45;96584.69;;;14.17;100.00
22862;BME280;11598;50.652;6.172;2022-10-16T18:36:45;96599.66;;;14.15;100.00
22862;BME280;11598;50.652;6.172;2022-10-16T18:46:46;96606.97;;;14.11;100.00
22862;BME280;11598;50.652;6.172;2022-10-16T18:56:46;96591.69;;;14.07;100.00
22862;BME280;11598;50.652;6.172;2022-10-16T19:06:48;96618.84;;;13.94;100.00
22862;BME280;11598;50.652;6.172;2022-10-16T19:16:50;96610.56;;;13.89;100.00
22862;BME280;11598;50.652;6.172;2022-10-16T19:26:50;96621.75;;;14.01;100.00
22862;BME280;11598;50.652;6.172;2022-10-16T19:36:51;96623.09;;;14.26;100.00
22862;BME280;11598;50.652;6.172;2022-10-16T19:46:52;96619.28;;;14.40;100.00
22862;BME280;11598;50.652;6.172;2022-10-16T19:56:52;96619.56;;;14.47;100.00
22862;BME280;11598;50.652;6.172;2022-10-16T20:06:53;96625.66;;;14.57;100.00
22862;BME280;11598;50.652;6.172;2022-10-16T20:16:54;96618.25;;;14.62;100.00
22862;BME280;11598;50.652;6.172;2022-10-16T20:26:54;96620.72;;;14.54;100.00
22862;BME280;11598;50.652;6.172;2022-10-16T20:36:55;96621.50;;;14.45;100.00
22862;BME280;11598;50.652;6.172;2022-10-16T20:46:55;96620.66;;;14.44;100.00
22862;BME280;11598;50.652;6.172;2022-10-16T20:56:55;96624.50;;;14.40;100.00
22862;BME280;11598;50.652;6.172;2022-10-16T21:06:57;96622.72;;;14.41;100.00
22862;BME280;11598;50.652;6.172;2022-10-16T21:16:57;96610.34;;;14.43;100.00
22862;BME280;11598;50.652;6.172;2022-10-16T21:26:57;96615.69;;;14.41;100.00
22862;BME280;11598;50.652;6.172;2022-10-16T21:36:58;96626.84;;;14.43;100.00
22862;BME280;11598;50.652;6.172;2022-10-16T21:46:58;96627.53;;;14.45;100.00
22862;BME280;11598;50.652;6.172;2022-10-16T21:56:58;96627.41;;;14.47;100.00
22862;BME280;11598;50.652;6.172;2022-10-16T22:06:59;96632.09;;;14.53;100.00
22862;BME280;11598;50.652;6.172;2022-10-16T22:16:59;96630.09;;;14.56;100.00
22862;BME280;11598;50.652;6.172;2022-10-16T22:26:59;96622.13;;;14.58;100.00
22862;BME280;11598;50.652;6.172;2022-10-16T22:37:00;96619.91;;;14.63;100.00
22862;BME280;11598;50.652;6.172;2022-10-16T22:47:00;96629.00;;;14.69;100.00
22862;BME280;11598;50.652;6.172;2022-10-16T22:57:01;96626.25;;;14.80;100.00
22862;BME280;11598;50.652;6.172;2022-10-16T23:07:01;96624.88;;;14.95;100.00
22862;BME280;11598;50.652;6.172;2022-10-16T23:17:01;96615.78;;;15.09;100.00
22862;BME280;11598;50.652;6.172;2022-10-16T23:27:02;96633.16;;;15.10;100.00
22862;BME280;11598;50.652;6.172;2022-10-16T23:37:02;96637.53;;;15.10;100.00
22862;BME280;11598;50.652;6.172;2022-10-16T23:47:05;96640.16;;;15.10;100.00
22862;BME280;11598;50.652;6.172;2022-10-16T23:57:05;96660.16;;;15.11;100.00
